»·PEaware :: DAL2259 KSEA-KSFO

DAL2259 :: KSEA-KSFO

FLIGHT INFORMATION

Flight Status: Arrived
Operator:
Delta Air Lines
More flights by this operator :: More flights under this callsign
Pilot: Scott W. (15065)
Aircraft: EMBRAER EMB-170/175
(E170)
More flights by this aircraft type
Origin: KSEA Seattle-Tacoma Intl
United States
Destination: KSFO San Francisco Intl
United States
More flights between these airports :: More routes between these airports
Route: +HAROB6 ERAVE Q1 ETCHY MLBEC BDEGA2
File this flight plan on PilotEdge
Remarks:
Altitude:
(Current/Filed)
31,000ft
Speed:
(Current/Filed)
456kts
Departed: 08-Jan-18 06:41 PM
Arrived: 08-Jan-18 08:35 PM
Distance/Time
Traveled:
590nm/1:54
Distance/Time
To Go:
Arrived

Flight Plot

Page will automatically refresh every two minutes.

Flight plan parsing failed; only flown route is shown


Map Options




Map Legend


Flown Route
Filed Route
Departure Airport
Arrival Airport
Navaid (VOR, NDB)
Fix

Horizontal Profiles

Position Reports

Time Latitude Longitude Heading Altitude Ground
Speed
08-Jan-18 17:44 47.442859 -122.303379 137 354ft 0kts
08-Jan-18 17:45 47.442859 -122.303379 137 354ft 0kts
08-Jan-18 17:46 47.442859 -122.303379 137 354ft 0kts
08-Jan-18 17:47 47.442859 -122.303379 137 354ft 0kts
08-Jan-18 17:48 47.442859 -122.303379 137 354ft 0kts
08-Jan-18 17:49 47.442859 -122.303379 137 354ft 0kts
08-Jan-18 17:50 47.442859 -122.303379 137 354ft 0kts
08-Jan-18 17:51 47.442859 -122.303379 137 354ft 0kts
08-Jan-18 17:52 47.442859 -122.303379 137 354ft 0kts
08-Jan-18 17:53 47.442859 -122.303379 137 354ft 0kts
08-Jan-18 17:54 47.442859 -122.303379 137 354ft 0kts
08-Jan-18 17:55 47.442859 -122.303379 137 354ft 0kts
08-Jan-18 17:56 47.442859 -122.303379 137 354ft 0kts
08-Jan-18 17:57 47.442859 -122.303379 137 354ft 0kts
08-Jan-18 17:58 47.442859 -122.303379 137 354ft 0kts
08-Jan-18 17:59 47.442859 -122.303379 137 354ft 0kts
08-Jan-18 18:00 47.442859 -122.303379 137 354ft 0kts
08-Jan-18 18:01 47.442859 -122.303379 137 354ft 0kts
08-Jan-18 18:02 47.442859 -122.303379 137 354ft 0kts
08-Jan-18 18:03 47.442859 -122.303379 137 354ft 0kts
08-Jan-18 18:04 47.442859 -122.303379 137 354ft 0kts
08-Jan-18 18:05 47.442859 -122.303379 137 354ft 0kts
08-Jan-18 18:06 47.442859 -122.303379 137 354ft 0kts
08-Jan-18 18:07 47.442859 -122.303379 137 354ft 0kts
08-Jan-18 18:08 47.442859 -122.303379 137 354ft 0kts
08-Jan-18 18:09 47.442859 -122.303379 137 354ft 0kts
08-Jan-18 18:10 47.442859 -122.303379 137 354ft 0kts
08-Jan-18 18:11 47.442859 -122.303379 137 354ft 0kts
08-Jan-18 18:12 47.442859 -122.303379 137 354ft 0kts
08-Jan-18 18:13 47.442859 -122.303379 137 354ft 0kts
08-Jan-18 18:14 47.442859 -122.303379 137 354ft 0kts
08-Jan-18 18:15 47.442859 -122.303379 137 354ft 0kts
08-Jan-18 18:16 47.442859 -122.303379 137 354ft 0kts
08-Jan-18 18:17 47.442859 -122.303379 137 354ft 0kts
08-Jan-18 18:18 47.442859 -122.303379 137 354ft 0kts
08-Jan-18 18:19 47.442859 -122.303379 137 354ft 0kts
08-Jan-18 18:20 47.442859 -122.303379 137 354ft 0kts
08-Jan-18 18:21 47.442859 -122.303379 137 354ft 0kts
08-Jan-18 18:22 47.442859 -122.303379 137 354ft 0kts
08-Jan-18 18:23 47.442859 -122.303379 137 354ft 0kts
08-Jan-18 18:24 47.442859 -122.303379 137 354ft 0kts
08-Jan-18 18:25 47.442859 -122.303379 137 354ft 0kts
08-Jan-18 18:26 47.442859 -122.303379 137 354ft 0kts
08-Jan-18 18:27 47.442859 -122.303379 137 354ft 0kts
08-Jan-18 18:28 47.442859 -122.303379 137 354ft 0kts
08-Jan-18 18:29 47.442859 -122.303380 137 354ft 0kts
08-Jan-18 18:30 47.443285 -122.303953 137 354ft 2kts
08-Jan-18 18:31 47.443447 -122.304173 137 354ft 0kts
08-Jan-18 18:32 47.443447 -122.304173 137 354ft 0kts
08-Jan-18 18:33 47.443155 -122.304363 262 354ft 3kts
08-Jan-18 18:34 47.443150 -122.304431 263 354ft 0kts
08-Jan-18 18:35 47.443150 -122.304431 263 354ft 0kts
08-Jan-18 18:36 47.443302 -122.305723 295 354ft 10kts
08-Jan-18 18:37 47.447829 -122.306269 0 354ft 20kts
08-Jan-18 18:38 47.452106 -122.306243 0 354ft 11kts
08-Jan-18 18:39 47.455403 -122.306204 0 354ft 12kts
08-Jan-18 18:40 47.458970 -122.306166 0 354ft 12kts
08-Jan-18 18:41 47.461474 -122.306132 0 354ft 0kts
08-Jan-18 18:42 47.462971 -122.306111 0 354ft 8kts
08-Jan-18 18:43 47.463695 -122.306453 284 354ft 0kts
08-Jan-18 18:44 47.463695 -122.306453 284 354ft 0kts
08-Jan-18 18:45 47.463304 -122.307753 181 354ft 0kts
08-Jan-18 18:46 47.463304 -122.307753 181 354ft 0kts
08-Jan-18 18:47 47.452242 -122.307876 180 384ft 151kts
08-Jan-18 18:48 47.396583 -122.308613 177 2536ft 229kts
08-Jan-18 18:49 47.330353 -122.327190 229 5019ft 265kts
08-Jan-18 18:50 47.307931 -122.426562 267 7554ft 258kts
08-Jan-18 18:51 47.309586 -122.532073 269 10035ft 264kts
08-Jan-18 18:52 47.312628 -122.649345 267 12585ft 316kts
08-Jan-18 18:53 47.313910 -122.772811 256 14955ft 320kts
08-Jan-18 18:54 47.284144 -122.894305 242 17449ft 322kts
08-Jan-18 18:55 47.248799 -123.017518 237 19937ft 332kts
08-Jan-18 18:56 47.182718 -123.110079 215 22159ft 335kts
08-Jan-18 18:57 47.106721 -123.190032 215 24127ft 341kts
08-Jan-18 18:58 47.029786 -123.272684 216 26079ft 348kts
08-Jan-18 18:59 46.950813 -123.357742 216 28026ft 360kts
08-Jan-18 19:00 46.864378 -123.401963 187 29771ft 384kts
08-Jan-18 19:01 46.766009 -123.398505 182 30769ft 395kts
08-Jan-18 19:02 46.655326 -123.393176 183 30790ft 403kts
08-Jan-18 19:03 46.543436 -123.389446 183 30786ft 405kts
08-Jan-18 19:04 46.431565 -123.386005 183 30783ft 405kts
08-Jan-18 19:05 46.319272 -123.382588 183 30789ft 405kts
08-Jan-18 19:06 46.207321 -123.379196 183 30797ft 404kts
08-Jan-18 19:07 46.097599 -123.375730 184 30795ft 394kts
08-Jan-18 19:08 45.988254 -123.372529 184 30797ft 395kts
08-Jan-18 19:09 45.880997 -123.369294 184 30806ft 395kts
08-Jan-18 19:10 45.773747 -123.365894 184 30793ft 395kts
08-Jan-18 19:11 45.663793 -123.362606 184 30789ft 398kts
08-Jan-18 19:12 45.553100 -123.359293 184 30785ft 398kts
08-Jan-18 19:13 45.442899 -123.355993 184 30783ft 399kts
08-Jan-18 19:14 45.332325 -123.352741 184 30785ft 398kts
08-Jan-18 19:15 45.221877 -123.349463 184 30782ft 398kts
08-Jan-18 19:16 45.111612 -123.346269 184 30780ft 398kts
08-Jan-18 19:17 44.999803 -123.343041 183 30779ft 406kts
08-Jan-18 19:18 44.889677 -123.339858 183 30784ft 409kts
08-Jan-18 19:19 44.778344 -123.336455 183 30790ft 409kts
08-Jan-18 19:20 44.678544 -123.291999 149 30809ft 440kts
08-Jan-18 19:21 44.583562 -123.205060 155 30789ft 432kts
08-Jan-18 19:22 44.481416 -123.117618 155 30779ft 432kts
08-Jan-18 19:23 44.372781 -123.072468 193 30784ft 407kts
08-Jan-18 19:24 44.263630 -123.109422 194 30758ft 404kts
08-Jan-18 19:25 44.152484 -123.127514 188 30757ft 406kts
08-Jan-18 19:26 44.039608 -123.136263 187 30755ft 407kts
08-Jan-18 19:27 43.945793 -123.142945 187 30753ft 407kts
08-Jan-18 19:28 43.820517 -123.152194 187 30766ft 407kts
08-Jan-18 19:29 43.726759 -123.159037 187 30763ft 407kts
08-Jan-18 19:30 43.595240 -123.168734 187 30757ft 407kts
08-Jan-18 19:31 43.501444 -123.175718 187 30751ft 407kts
08-Jan-18 19:32 43.370100 -123.185469 187 30750ft 407kts
08-Jan-18 19:33 43.276222 -123.192367 187 30748ft 407kts
08-Jan-18 19:34 43.144496 -123.201991 187 30747ft 407kts
08-Jan-18 19:35 43.050549 -123.208835 187 30745ft 406kts
08-Jan-18 19:36 42.937863 -123.217087 186 30743ft 406kts
08-Jan-18 19:37 42.833414 -123.224614 185 30756ft 407kts
08-Jan-18 19:38 42.720748 -123.232549 185 30755ft 407kts
08-Jan-18 19:39 42.608094 -123.240721 186 30754ft 407kts
08-Jan-18 19:40 42.495746 -123.248915 185 30751ft 407kts
08-Jan-18 19:41 42.382913 -123.247639 181 30750ft 408kts
08-Jan-18 19:42 42.269980 -123.242189 181 30748ft 408kts
08-Jan-18 19:43 42.156737 -123.237810 181 30746ft 408kts
08-Jan-18 19:44 42.043438 -123.233744 181 30745ft 408kts
08-Jan-18 19:45 41.930023 -123.229694 181 30744ft 408kts
08-Jan-18 19:46 41.823740 -123.225807 181 30766ft 408kts
08-Jan-18 19:47 41.710318 -123.221678 182 30771ft 409kts
08-Jan-18 19:48 41.597095 -123.217824 181 30757ft 409kts
08-Jan-18 19:49 41.483840 -123.213723 181 30752ft 409kts
08-Jan-18 19:50 41.370397 -123.209889 182 30748ft 409kts
08-Jan-18 19:51 41.257023 -123.206562 182 30749ft 409kts
08-Jan-18 19:52 41.144198 -123.203666 182 30748ft 408kts
08-Jan-18 19:53 41.030854 -123.200859 181 30753ft 407kts
08-Jan-18 19:54 40.918317 -123.198032 181 30760ft 407kts
08-Jan-18 19:55 40.817254 -123.195483 181 30772ft 407kts
08-Jan-18 19:56 40.704357 -123.192655 181 30777ft 407kts
08-Jan-18 19:57 40.591959 -123.189858 181 30776ft 407kts
08-Jan-18 19:58 40.479454 -123.187073 180 30777ft 407kts
08-Jan-18 19:59 40.366657 -123.184278 180 30778ft 406kts
08-Jan-18 20:00 40.254186 -123.181540 180 30780ft 407kts
08-Jan-18 20:01 40.141125 -123.178802 181 30780ft 406kts
08-Jan-18 20:02 40.028596 -123.176105 181 30760ft 406kts
08-Jan-18 20:03 39.915587 -123.172761 180 30752ft 406kts
08-Jan-18 20:04 39.817662 -123.167940 179 30765ft 407kts
08-Jan-18 20:05 39.705237 -123.162555 180 30765ft 407kts
08-Jan-18 20:06 39.592222 -123.157338 180 30763ft 407kts
08-Jan-18 20:07 39.480267 -123.152149 179 30749ft 403kts
08-Jan-18 20:08 39.370261 -123.119915 166 30750ft 409kts
08-Jan-18 20:09 39.260964 -123.080064 169 30748ft 409kts
08-Jan-18 20:10 39.151032 -123.045017 169 30747ft 409kts
08-Jan-18 20:11 39.040704 -123.010704 169 30744ft 410kts
08-Jan-18 20:12 38.930966 -122.976405 169 29666ft 398kts
08-Jan-18 20:13 38.837158 -122.947624 170 28271ft 368kts
08-Jan-18 20:14 38.740799 -122.919332 169 26925ft 364kts
08-Jan-18 20:15 38.643796 -122.890726 169 25555ft 357kts
08-Jan-18 20:16 38.548430 -122.862564 169 24377ft 349kts
08-Jan-18 20:17 38.454585 -122.835049 169 23282ft 344kts
08-Jan-18 20:18 38.362273 -122.807951 169 22166ft 338kts
08-Jan-18 20:19 38.271668 -122.781415 169 21052ft 333kts
08-Jan-18 20:20 38.182188 -122.755248 168 19744ft 329kts
08-Jan-18 20:21 38.094894 -122.729975 168 18115ft 319kts
08-Jan-18 20:22 38.009578 -122.705268 168 16474ft 312kts
08-Jan-18 20:23 37.926256 -122.681146 168 14851ft 304kts
08-Jan-18 20:24 37.859274 -122.632442 143 13403ft 288kts
08-Jan-18 20:25 37.800354 -122.568489 143 11909ft 273kts
08-Jan-18 20:26 37.743418 -122.508376 142 10413ft 263kts
08-Jan-18 20:27 37.688886 -122.450673 141 10292ft 258kts
08-Jan-18 20:28 37.634021 -122.392170 140 10298ft 258kts
08-Jan-18 20:29 37.568022 -122.403624 203 10379ft 268kts
08-Jan-18 20:30 37.500220 -122.440730 170 9108ft 258kts
08-Jan-18 20:31 37.438879 -122.402600 151 7783ft 228kts
08-Jan-18 20:32 37.434767 -122.326550 83 7044ft 240kts
08-Jan-18 20:33 37.448075 -122.244208 83 6764ft 233kts
08-Jan-18 20:34 37.459638 -122.168762 83 5628ft 212kts
08-Jan-18 20:35 37.473294 -122.102483 43 4015ft 200kts
08-Jan-18 20:36 37.517500 -122.129110 298 3128ft 192kts
08-Jan-18 20:37 37.543228 -122.190108 299 2964ft 201kts
08-Jan-18 20:38 37.568718 -122.250559 299 1951ft 190kts
08-Jan-18 20:39 37.592293 -122.306634 299 1005ft 165kts
08-Jan-18 20:40 37.611416 -122.352120 299 171ft 132kts
08-Jan-18 20:41 37.622182 -122.379579 277 18ft 38kts
08-Jan-18 20:42 37.622217 -122.384792 270 18ft 24kts
08-Jan-18 20:43 37.619167 -122.380886 117 18ft 28kts
08-Jan-18 20:44 37.614070 -122.381444 235 18ft 9kts
08-Jan-18 20:45 37.614518 -122.381995 319 18ft 0kts

Navigation Log

Ident Type
Flight plan parsing failed, navigation log unavailable